Time;durP1;ratioP1;P1;durP2;ratioP2;P2;SDS_P1;SDS_P2;PMS_P1;PMS_P2;Temp;Humidity;BMP_temperature;BMP_pressure;BME280_temperature;BME280_humidity;BME280_pressure;Samples;Min_cycle;Max_cycle;Signal;HPM_P1;HPM_P2
2024/01/19 00:01:26;;;;;;;6.50;0.80;;;30.40;20.20;;;;;;4954177;29;20227;-73
2024/01/19 00:03:54;;;;;;;1.50;0.67;;;30.60;20.10;;;;;;4953605;29;20207;-72
2024/01/19 00:06:21;;;;;;;6.17;0.70;;;30.30;20.00;;;;;;4964522;28;20678;-72
2024/01/19 00:08:49;;;;;;;2.25;0.60;;;30.80;17.30;;;;;;4956935;28;20238;-72
2024/01/19 00:11:18;;;;;;;2.35;0.60;;;30.80;13.40;;;;;;4969768;28;20278;-71
2024/01/19 00:13:45;;;;;;;3.10;0.68;;;30.60;10.40;;;;;;4973800;28;20187;-72
2024/01/19 00:16:13;;;;;;;1.40;0.60;;;30.30;14.90;;;;;;4973100;28;20345;-71
2024/01/19 00:18:41;;;;;;;3.95;0.80;;;30.80;15.80;;;;;;4973907;28;20266;-72
2024/01/19 00:21:08;;;;;;;1.30;0.50;;;30.70;16.10;;;;;;4973704;28;20262;-72
2024/01/19 00:23:36;;;;;;;2.03;0.60;;;30.90;16.00;;;;;;4974045;28;20175;-73
2024/01/19 00:26:04;;;;;;;3.92;0.85;;;31.10;16.50;;;;;;4973626;28;20206;-72
2024/01/19 00:28:32;;;;;;;2.08;0.63;;;31.90;19.10;;;;;;4973854;28;20175;-72
2024/01/19 00:30:59;;;;;;;1.33;0.50;;;32.30;11.10;;;;;;4988624;28;20190;-72
2024/01/19 00:33:27;;;;;;;3.75;0.52;;;32.20;13.20;;;;;;4973681;28;20227;-72
2024/01/19 00:35:54;;;;;;;2.45;0.63;;;32.10;7.10;;;;;;4973840;28;20703;-72
2024/01/19 00:38:22;;;;;;;2.55;0.65;;;32.00;5.60;;;;;;4974001;28;20212;-72
2024/01/19 00:40:50;;;;;;;1.52;0.60;;;31.80;7.30;;;;;;4973580;28;20578;-73
2024/01/19 00:43:17;;;;;;;2.42;0.70;;;31.80;3.80;;;;;;4975355;28;20183;-73
2024/01/19 00:45:45;;;;;;;4.88;1.05;;;31.90;4.80;;;;;;4974305;28;20669;-72
2024/01/19 00:48:13;;;;;;;1.80;0.60;;;32.00;3.20;;;;;;4976609;28;20182;-72
2024/01/19 00:50:40;;;;;;;1.33;0.43;;;31.80;3.30;;;;;;4976843;28;20717;-73
2024/01/19 00:53:08;;;;;;;2.30;0.77;;;31.90;2.90;;;;;;4977193;28;20609;-73
2024/01/19 00:55:36;;;;;;;1.92;0.40;;;32.20;2.70;;;;;;4975908;28;20617;-72
2024/01/19 00:58:03;;;;;;;2.58;0.60;;;32.00;2.40;;;;;;4977224;28;20186;-73
2024/01/19 01:00:31;;;;;;;2.55;0.60;;;31.50;3.20;;;;;;4976847;28;20211;-73
2024/01/19 01:02:59;;;;;;;0.90;0.40;;;31.80;1.60;;;;;;4976906;28;20278;-73
2024/01/19 01:05:26;;;;;;;0.95;0.40;;;32.10;1.00;;;;;;4976727;28;20215;-73
2024/01/19 01:07:54;;;;;;;3.88;0.85;;;32.30;3.90;;;;;;4977609;28;20533;-74
2024/01/19 01:10:22;;;;;;;2.85;0.50;;;32.30;3.00;;;;;;4976896;28;20544;-74
2024/01/19 01:12:49;;;;;;;0.88;0.40;;;32.50;1.00;;;;;;4976758;28;20604;-73
2024/01/19 01:15:17;;;;;;;1.17;0.30;;;32.30;1.00;;;;;;4976819;28;20207;-73
2024/01/19 01:17:45;;;;;;;2.15;0.60;;;32.20;1.00;;;;;;4968429;28;20191;-76
2024/01/19 01:20:15;;;;;;;2.83;0.30;;;32.20;1.00;;;;;;4962548;28;20264;-73
2024/01/19 01:22:43;;;;;;;0.60;0.38;;;32.50;1.00;;;;;;4957528;28;20173;-73
2024/01/19 01:25:11;;;;;;;1.67;0.50;;;32.60;1.00;;;;;;4957075;28;20302;-74
2024/01/19 01:27:38;;;;;;;0.90;0.30;;;32.80;1.00;;;;;;4935718;29;20180;-75
2024/01/19 01:30:08;;;;;;;2.33;0.35;;;33.10;1.00;;;;;;4955725;28;20172;-75
2024/01/19 01:32:37;;;;;;;1.90;0.60;;;33.20;1.00;;;;;;4959055;28;20215;-76
2024/01/19 01:38:27;;;;;;;0.57;0.40;;;33.90;1.00;;;;;;4973769;28;20198;-73
2024/01/19 01:40:55;;;;;;;3.72;0.85;;;33.80;1.00;;;;;;4962487;28;20283;-76
2024/01/19 01:43:24;;;;;;;0.95;0.38;;;34.60;1.00;;;;;;4974988;28;20531;-75
2024/01/19 01:45:52;;;;;;;0.70;0.20;;;34.30;1.00;;;;;;4974406;28;20674;-74
2024/01/19 01:48:22;;;;;;;4.05;0.63;;;34.40;1.00;;;;;;4970514;28;20243;-74
2024/01/19 01:50:49;;;;;;;2.13;0.60;;;34.40;1.00;;;;;;4955679;28;20181;-75
2024/01/19 01:53:20;;;;;;;1.40;0.50;;;34.30;1.00;;;;;;4955563;28;20269;-76
2024/01/19 01:55:49;;;;;;;2.10;0.47;;;34.30;1.00;;;;;;4962507;28;20184;-72
2024/01/19 01:58:17;;;;;;;1.67;0.47;;;34.50;1.00;;;;;;4968360;28;20183;-74
2024/01/19 02:00:47;;;;;;;1.40;0.30;;;34.60;1.00;;;;;;4974846;28;20203;-74
2024/01/19 02:03:14;;;;;;;2.22;0.55;;;34.50;1.00;;;;;;4973360;28;20190;-73
2024/01/19 02:05:42;;;;;;;4.63;0.32;;;34.30;1.00;;;;;;4973032;28;20226;-74
2024/01/19 02:08:10;;;;;;;4.35;0.50;;;33.90;1.00;;;;;;4973070;28;20179;-73
2024/01/19 02:10:38;;;;;;;1.33;0.40;;;34.20;1.00;;;;;;4960280;28;20198;-73
2024/01/19 02:13:05;;;;;;;1.58;0.52;;;34.40;1.00;;;;;;4956031;28;20195;-74
2024/01/19 02:15:35;;;;;;;1.42;0.40;;;34.60;1.00;;;;;;4958826;28;20211;-73
2024/01/19 02:18:03;;;;;;;0.73;0.50;;;34.30;1.00;;;;;;4965263;28;20192;-76
2024/01/19 02:20:30;;;;;;;1.00;0.30;;;34.60;1.00;;;;;;4957263;28;20183;-73
2024/01/19 02:22:59;;;;;;;2.97;0.80;;;34.50;1.00;;;;;;4955075;28;20184;-74
2024/01/19 02:25:27;;;;;;;3.63;0.55;;;34.40;1.00;;;;;;4953523;28;20216;-74
2024/01/19 02:27:55;;;;;;;2.95;0.50;;;34.30;1.00;;;;;;4953186;28;20194;-76
2024/01/19 02:30:23;;;;;;;1.75;0.65;;;34.60;1.00;;;;;;4953721;29;20721;-77
2024/01/19 02:32:51;;;;;;;1.13;0.40;;;34.60;1.00;;;;;;4954544;28;20283;-74
2024/01/19 02:35:19;;;;;;;3.22;0.65;;;34.90;1.00;;;;;;4968027;28;20250;-75
2024/01/19 02:37:47;;;;;;;1.48;0.20;;;35.20;1.00;;;;;;4957602;28;20554;-75
2024/01/19 02:40:14;;;;;;;3.30;0.28;;;34.40;1.00;;;;;;4954793;28;20235;-76
2024/01/19 02:42:42;;;;;;;2.15;0.47;;;34.10;1.00;;;;;;4965413;28;20289;-74
2024/01/19 02:45:10;;;;;;;3.88;0.40;;;34.40;1.00;;;;;;4973903;28;20207;-75
2024/01/19 02:50:52;;;;;;;0.52;0.35;;;34.20;1.00;;;;;;4934337;29;20219;-74
2024/01/19 02:53:20;;;;;;;1.77;0.50;;;34.10;1.00;;;;;;4933068;29;20242;-76
2024/01/19 02:55:48;;;;;;;0.60;0.38;;;34.10;1.00;;;;;;4953782;28;20192;-75
2024/01/19 02:58:15;;;;;;;1.33;0.50;;;34.20;1.00;;;;;;4970166;28;20191;-76
2024/01/19 03:00:44;;;;;;;0.68;0.30;;;33.90;1.00;;;;;;4954317;28;20251;-76
2024/01/19 03:03:11;;;;;;;1.85;0.35;;;34.10;1.00;;;;;;4954171;28;20534;-75
2024/01/19 03:05:39;;;;;;;0.98;0.47;;;34.50;1.00;;;;;;4952945;29;20226;-76
2024/01/19 03:08:07;;;;;;;1.48;0.55;;;34.40;1.00;;;;;;4954655;28;20547;-78
2024/01/19 03:10:34;;;;;;;1.52;0.47;;;34.50;1.00;;;;;;4963017;28;20187;-76
2024/01/19 03:13:02;;;;;;;1.20;0.30;;;34.60;1.00;;;;;;4963771;28;20549;-75
2024/01/19 03:15:30;;;;;;;2.92;0.50;;;34.70;1.00;;;;;;4958084;28;20311;-75
2024/01/19 03:17:57;;;;;;;2.88;0.60;;;34.60;1.00;;;;;;4952121;28;20725;-74
2024/01/19 03:20:25;;;;;;;1.10;0.30;;;34.90;1.00;;;;;;4954082;28;20642;-75
2024/01/19 03:22:53;;;;;;;1.23;0.30;;;34.90;1.00;;;;;;4961578;28;20946;-76
2024/01/19 03:25:20;;;;;;;2.63;0.40;;;34.90;1.00;;;;;;4962134;28;20685;-77
2024/01/19 03:27:48;;;;;;;5.05;0.63;;;34.70;1.00;;;;;;4962831;28;20179;-75
2024/01/19 03:30:17;;;;;;;3.55;0.50;;;34.50;1.00;;;;;;4972560;28;20704;-76
2024/01/19 03:32:44;;;;;;;1.67;0.60;;;34.50;1.00;;;;;;4972680;28;20231;-76
2024/01/19 03:35:12;;;;;;;4.60;0.57;;;34.20;1.00;;;;;;4969115;28;20249;-74
2024/01/19 03:37:40;;;;;;;3.05;1.10;;;34.00;1.00;;;;;;4963609;28;20560;-75
2024/01/19 03:40:09;;;;;;;1.88;0.65;;;33.80;1.00;;;;;;4961615;28;20180;-78
2024/01/19 03:42:37;;;;;;;5.00;0.40;;;33.90;1.00;;;;;;4962793;28;20180;-76
2024/01/19 03:48:27;;;;;;;4.15;0.65;;;33.80;1.00;;;;;;4960918;28;20642;-72
2024/01/19 03:50:55;;;;;;;1.95;0.60;;;33.70;1.00;;;;;;4963817;28;20266;-75
2024/01/19 03:53:22;;;;;;;3.10;0.70;;;33.50;1.00;;;;;;4962777;28;20602;-76
2024/01/19 03:55:50;;;;;;;1.38;0.63;;;33.70;1.00;;;;;;4961822;28;20195;-73
2024/01/19 03:58:18;;;;;;;1.63;0.50;;;33.30;1.00;;;;;;4961494;28;20176;-75
2024/01/19 04:00:45;;;;;;;6.43;0.55;;;33.00;1.00;;;;;;4961481;28;20194;-74
2024/01/19 04:03:13;;;;;;;1.83;0.60;;;33.10;1.00;;;;;;4961602;28;20186;-73
2024/01/19 04:05:41;;;;;;;1.95;0.40;;;33.20;1.00;;;;;;4962405;28;20306;-76
2024/01/19 04:08:08;;;;;;;7.10;0.80;;;33.20;1.00;;;;;;4958217;28;20191;-76
2024/01/19 04:10:36;;;;;;;3.53;0.80;;;33.00;1.00;;;;;;4960566;28;20191;-78
2024/01/19 04:13:04;;;;;;;3.15;0.80;;;32.90;1.00;;;;;;4962791;28;20188;-78
2024/01/19 04:15:32;;;;;;;3.53;0.77;;;33.00;1.00;;;;;;4966768;28;20194;-76
2024/01/19 04:17:59;;;;;;;3.53;0.50;;;33.20;1.00;;;;;;4969940;28;20183;-75
2024/01/19 04:20:27;;;;;;;2.03;0.52;;;33.10;1.00;;;;;;4953996;28;20176;-76
2024/01/19 04:22:55;;;;;;;2.33;0.32;;;32.90;1.00;;;;;;4968572;28;20183;-75
2024/01/19 04:25:22;;;;;;;7.18;0.95;;;33.00;1.00;;;;;;4978887;28;20219;-73
2024/01/19 04:27:51;;;;;;;2.70;0.65;;;33.10;1.00;;;;;;4978356;28;20185;-75
2024/01/19 04:30:18;;;;;;;1.67;0.75;;;33.20;1.00;;;;;;4976449;28;20184;-76
2024/01/19 04:32:46;;;;;;;2.03;0.40;;;33.00;1.00;;;;;;4974479;28;20250;-75
2024/01/19 04:35:14;;;;;;;5.20;0.80;;;33.10;1.00;;;;;;4976519;28;20185;-74
2024/01/19 04:37:41;;;;;;;1.88;0.43;;;33.00;1.00;;;;;;4974452;28;20691;-74
2024/01/19 04:40:09;;;;;;;1.60;0.50;;;33.00;1.00;;;;;;4971935;28;20172;-74
2024/01/19 04:42:37;;;;;;;3.50;0.80;;;32.80;1.00;;;;;;4956953;28;20180;-74
2024/01/19 04:45:05;;;;;;;5.88;0.85;;;32.90;1.00;;;;;;4955432;29;20208;-74
2024/01/19 04:47:33;;;;;;;3.63;1.15;;;32.70;1.00;;;;;;4970149;28;20195;-74
2024/01/19 04:50:00;;;;;;;3.58;0.65;;;32.20;1.00;;;;;;4951470;28;20199;-73
2024/01/19 04:52:28;;;;;;;3.70;0.47;;;31.90;1.00;;;;;;4961423;28;20807;-75
2024/01/19 04:54:56;;;;;;;3.05;0.60;;;32.00;1.00;;;;;;4973419;28;20187;-75
2024/01/19 04:57:23;;;;;;;5.80;0.77;;;32.50;1.40;;;;;;4967195;28;20552;-74
2024/01/19 04:59:51;;;;;;;1.20;0.40;;;32.80;4.30;;;;;;4965210;28;20260;-74
2024/01/19 05:02:19;;;;;;;2.50;0.60;;;32.50;1.00;;;;;;4961769;28;20183;-74
2024/01/19 05:04:46;;;;;;;3.55;0.60;;;32.10;3.60;;;;;;4955948;28;20211;-76
2024/01/19 05:07:14;;;;;;;2.55;0.68;;;31.80;5.00;;;;;;4956506;28;20179;-74
2024/01/19 05:09:42;;;;;;;4.45;0.63;;;31.30;9.60;;;;;;4956569;28;20180;-76
2024/01/19 05:12:10;;;;;;;2.03;0.50;;;31.60;13.40;;;;;;4963480;28;20191;-74
2024/01/19 05:14:37;;;;;;;1.30;0.50;;;31.40;7.00;;;;;;4974208;28;20556;-74
2024/01/19 05:17:05;;;;;;;2.75;0.65;;;31.30;14.00;;;;;;4975618;28;20189;-73
2024/01/19 05:19:33;;;;;;;1.03;0.50;;;31.40;11.90;;;;;;4960164;28;20199;-74
2024/01/19 05:22:01;;;;;;;4.47;0.63;;;31.80;13.50;;;;;;4961119;28;20284;-76
2024/01/19 05:24:29;;;;;;;2.58;0.50;;;32.20;12.10;;;;;;4956143;28;20176;-76
2024/01/19 05:26:56;;;;;;;3.05;0.60;;;32.30;12.90;;;;;;4955768;28;20673;-76
2024/01/19 05:29:24;;;;;;;2.35;0.65;;;32.50;12.90;;;;;;4956089;28;20304;-77
2024/01/19 05:31:51;;;;;;;2.67;0.60;;;32.30;6.80;;;;;;4960105;28;20195;-77
2024/01/19 05:34:19;;;;;;;1.95;0.52;;;32.40;10.00;;;;;;4972938;28;20195;-77
2024/01/19 05:36:47;;;;;;;1.90;0.60;;;32.70;9.20;;;;;;4975425;28;20214;-76
2024/01/19 05:39:14;;;;;;;1.65;0.40;;;33.10;10.90;;;;;;4980400;28;20201;-77
2024/01/19 05:41:42;;;;;;;3.53;0.70;;;32.50;8.70;;;;;;4978423;28;20183;-75
2024/01/19 05:44:10;;;;;;;3.08;0.50;;;32.70;12.80;;;;;;4975868;28;20261;-76
2024/01/19 05:46:38;;;;;;;4.28;0.82;;;32.30;10.00;;;;;;4974994;28;20218;-75
2024/01/19 05:49:06;;;;;;;4.45;0.60;;;32.30;16.00;;;;;;4974791;28;20225;-75
2024/01/19 05:51:34;;;;;;;1.85;0.50;;;32.60;13.70;;;;;;4972143;28;20274;-75
2024/01/19 05:54:01;;;;;;;1.35;0.60;;;32.30;11.60;;;;;;4965568;28;20199;-75
2024/01/19 05:56:29;;;;;;;3.83;1.02;;;32.00;17.00;;;;;;4963667;28;20210;-75
2024/01/19 05:58:57;;;;;;;4.25;1.13;;;32.10;18.00;;;;;;4966050;28;20196;-75
2024/01/19 06:01:24;;;;;;;1.08;0.40;;;32.40;18.30;;;;;;4965381;28;20325;-75
2024/01/19 06:03:52;;;;;;;1.42;0.50;;;32.80;15.00;;;;;;4964850;28;20212;-75
2024/01/19 06:06:20;;;;;;;3.97;0.65;;;32.90;15.80;;;;;;4957247;28;20681;-74
2024/01/19 06:08:47;;;;;;;3.63;0.55;;;32.70;17.80;;;;;;4962920;28;20663;-75
2024/01/19 06:11:15;;;;;;;1.73;0.50;;;32.00;16.20;;;;;;4955298;28;20183;-75
2024/01/19 06:13:45;;;;;;;1.15;0.43;;;31.90;22.10;;;;;;4961413;28;20206;-75
2024/01/19 06:16:13;;;;;;;3.88;0.52;;;32.20;25.60;;;;;;4983144;28;20191;-76
2024/01/19 06:18:40;;;;;;;2.85;0.63;;;31.80;18.70;;;;;;4975050;28;20260;-74
2024/01/19 06:21:11;;;;;;;3.10;0.60;;;31.50;20.40;;;;;;4956383;28;20188;-75
2024/01/19 06:23:39;;;;;;;3.53;0.68;;;31.30;26.90;;;;;;4955129;28;20184;-75
2024/01/19 06:26:13;;;;;;;2.50;0.60;;;31.30;28.20;;;;;;4955027;28;20300;-74
2024/01/19 06:28:41;;;;;;;4.28;0.75;;;31.20;34.20;;;;;;4955066;28;20188;-75
2024/01/19 06:31:13;;;;;;;1.70;0.77;;;31.20;36.50;;;;;;4956533;28;20215;-73
2024/01/19 06:33:41;;;;;;;2.45;0.95;;;31.00;40.50;;;;;;4956721;28;20248;-74
2024/01/19 06:36:13;;;;;;;3.80;0.80;;;30.60;46.40;;;;;;4953529;28;20180;-76
2024/01/19 06:38:40;;;;;;;2.17;0.70;;;30.50;45.70;;;;;;4954876;28;20179;-74
2024/01/19 06:41:08;;;;;;;3.10;0.77;;;30.30;52.00;;;;;;4969363;28;20195;-74
2024/01/19 06:43:36;;;;;;;3.57;0.80;;;30.10;58.40;;;;;;4973815;28;20181;-75
2024/01/19 06:46:05;;;;;;;3.73;0.70;;;30.00;70.00;;;;;;4955840;28;20222;-75
2024/01/19 06:48:33;;;;;;;1.40;0.57;;;29.30;81.70;;;;;;4954135;28;20227;-74
2024/01/19 06:51:00;;;;;;;2.40;0.60;;;28.80;95.00;;;;;;4954405;28;20188;-73
2024/01/19 06:53:28;;;;;;;2.80;0.90;;;28.30;99.90;;;;;;4954622;28;20176;-75
2024/01/19 06:55:56;;;;;;;1.67;0.90;;;28.30;99.90;;;;;;4972769;28;20205;-75
2024/01/19 06:58:24;;;;;;;1.80;0.77;;;28.10;99.90;;;;;;4973827;28;20178;-75
2024/01/19 07:00:51;;;;;;;4.17;0.63;;;28.30;99.90;;;;;;4973592;28;20187;-76
2024/01/19 07:03:20;;;;;;;3.47;0.73;;;28.30;99.90;;;;;;4973078;28;20525;-74
2024/01/19 07:05:48;;;;;;;6.70;1.13;;;28.70;99.90;;;;;;4964682;28;20639;-73
2024/01/19 07:08:15;;;;;;;4.47;0.87;;;28.90;99.90;;;;;;4972218;28;20648;-74
2024/01/19 07:10:43;;;;;;;5.00;0.80;;;28.30;99.90;;;;;;4973055;28;20182;-74
2024/01/19 07:13:11;;;;;;;3.90;0.63;;;28.30;99.90;;;;;;4973587;28;20517;-74
2024/01/19 07:15:38;;;;;;;4.90;0.67;;;28.50;99.90;;;;;;4972880;28;20551;-76
2024/01/19 07:18:06;;;;;;;3.10;0.73;;;28.40;99.90;;;;;;4973084;28;20172;-74
2024/01/19 07:20:34;;;;;;;4.77;0.87;;;28.50;99.90;;;;;;4973483;28;20551;-75
2024/01/19 07:23:03;;;;;;;4.60;1.30;;;28.00;99.90;;;;;;4973520;28;20306;-75
2024/01/19 07:25:31;;;;;;;2.60;0.90;;;27.80;99.90;;;;;;4967116;28;20226;-75
2024/01/19 07:27:59;;;;;;;6.13;0.80;;;27.90;99.90;;;;;;4958292;28;20175;-75
2024/01/19 07:30:27;;;;;;;2.50;1.00;;;27.70;99.90;;;;;;4973355;28;20250;-76
2024/01/19 07:32:54;;;;;;;2.27;0.90;;;28.10;99.90;;;;;;4972548;28;20229;-74
2024/01/19 07:35:22;;;;;;;4.47;1.03;;;28.30;99.90;;;;;;4973007;28;20614;-74
2024/01/19 07:37:49;;;;;;;5.10;1.07;;;28.30;99.90;;;;;;4972752;28;20192;-75
2024/01/19 07:40:17;;;;;;;4.63;0.80;;;27.80;99.90;;;;;;4972712;28;20586;-74
2024/01/19 07:42:45;;;;;;;3.87;0.80;;;27.70;99.90;;;;;;4973115;28;20198;-75
2024/01/19 07:45:13;;;;;;;5.33;1.43;;;27.60;99.90;;;;;;4973064;28;20219;-75
2024/01/19 07:47:40;;;;;;;5.47;0.80;;;27.80;99.90;;;;;;4959437;28;20175;-74
2024/01/19 07:50:10;;;;;;;4.43;0.87;;;27.70;99.90;;;;;;4952605;29;20198;-73
2024/01/19 07:52:39;;;;;;;2.50;0.80;;;27.60;99.90;;;;;;4955934;28;20183;-74
2024/01/19 07:55:07;;;;;;;2.23;1.00;;;27.70;99.90;;;;;;4965443;28;20183;-74
2024/01/19 07:57:35;;;;;;;3.77;0.80;;;27.80;99.90;;;;;;4969917;28;20179;-75
2024/01/19 08:00:03;;;;;;;5.23;0.83;;;27.60;99.90;;;;;;4976236;28;20245;-74
2024/01/19 08:02:31;;;;;;;3.43;0.87;;;27.50;99.90;;;;;;4980907;28;20225;-75
2024/01/19 08:04:58;;;;;;;3.80;1.30;;;27.60;99.90;;;;;;4978991;28;20203;-74
2024/01/19 08:07:26;;;;;;;6.80;0.93;;;27.50;99.90;;;;;;4978175;28;20286;-76
2024/01/19 08:09:54;;;;;;;5.03;0.70;;;27.60;99.90;;;;;;4962959;28;20684;-76
2024/01/19 08:12:21;;;;;;;4.13;0.77;;;27.30;99.90;;;;;;4959113;28;20258;-76
2024/01/19 08:14:52;;;;;;;3.27;0.90;;;27.30;99.90;;;;;;4971227;28;20198;-74
2024/01/19 08:17:19;;;;;;;3.40;0.60;;;27.20;99.90;;;;;;4976390;28;20530;-74
2024/01/19 08:19:47;;;;;;;4.23;0.97;;;27.20;99.90;;;;;;4975945;28;20662;-76
2024/01/19 08:22:15;;;;;;;2.47;0.70;;;27.10;99.90;;;;;;4977989;28;20215;-74
2024/01/19 08:24:42;;;;;;;8.57;0.90;;;27.00;99.90;;;;;;4977501;28;20194;-74
2024/01/19 08:27:10;;;;;;;3.00;0.63;;;27.00;99.90;;;;;;4971629;28;20274;-75
2024/01/19 08:29:38;;;;;;;2.77;0.90;;;26.80;99.90;;;;;;4975688;28;20214;-75
2024/01/19 08:32:05;;;;;;;3.77;0.90;;;26.60;99.90;;;;;;4977358;28;20175;-75
2024/01/19 08:34:33;;;;;;;4.53;1.10;;;26.60;99.90;;;;;;4975903;28;20199;-74
2024/01/19 08:37:01;;;;;;;3.63;0.70;;;26.50;99.90;;;;;;4964146;28;20184;-73
2024/01/19 08:39:28;;;;;;;3.77;0.77;;;26.40;99.90;;;;;;4964952;28;20275;-73
2024/01/19 08:41:56;;;;;;;5.50;0.90;;;26.30;99.90;;;;;;4973429;28;20645;-75
2024/01/19 08:44:24;;;;;;;5.23;0.90;;;26.10;99.90;;;;;;4977791;28;20237;-75
2024/01/19 08:46:52;;;;;;;4.23;0.93;;;26.00;99.90;;;;;;4977293;28;20256;-75
2024/01/19 08:49:19;;;;;;;2.47;0.77;;;25.80;99.90;;;;;;4971920;28;20246;-76
2024/01/19 08:51:49;;;;;;;5.63;1.03;;;25.50;99.90;;;;;;4976004;28;20298;-75
2024/01/19 08:54:18;;;;;;;2.93;0.80;;;25.40;99.90;;;;;;4977219;28;20190;-76
2024/01/19 08:56:45;;;;;;;3.90;1.10;;;25.30;99.90;;;;;;4961107;28;20227;-76
2024/01/19 08:59:13;;;;;;;5.07;1.27;;;25.20;99.90;;;;;;4957707;29;20251;-75
2024/01/19 09:01:41;;;;;;;4.63;1.13;;;25.10;99.90;;;;;;4973946;28;20238;-76
2024/01/19 09:04:08;;;;;;;3.70;1.10;;;25.10;99.90;;;;;;4977109;28;20210;-75
2024/01/19 09:06:36;;;;;;;6.37;1.23;;;25.00;99.90;;;;;;4976853;28;20224;-75
2024/01/19 09:09:04;;;;;;;6.00;1.20;;;25.00;99.90;;;;;;4974937;28;20183;-75
2024/01/19 09:11:35;;;;;;;5.83;0.83;;;24.90;99.90;;;;;;4962636;28;20184;-75
2024/01/19 09:14:02;;;;;;;4.70;1.07;;;24.90;99.90;;;;;;4956237;28;20188;-74
2024/01/19 09:16:30;;;;;;;6.90;1.30;;;24.80;99.90;;;;;;4960242;28;20189;-74
2024/01/19 09:18:58;;;;;;;3.30;1.53;;;24.70;99.90;;;;;;4976808;28;20222;-74
2024/01/19 09:21:25;;;;;;;4.83;1.23;;;24.60;99.90;;;;;;4975042;28;20180;-74
2024/01/19 09:23:54;;;;;;;5.93;1.13;;;24.60;99.90;;;;;;4976399;28;20183;-74
2024/01/19 09:26:22;;;;;;;2.00;0.80;;;24.60;99.90;;;;;;4974863;28;20222;-75
2024/01/19 09:28:50;;;;;;;4.50;1.30;;;24.60;99.90;;;;;;4976456;28;20215;-75
2024/01/19 09:31:18;;;;;;;4.17;1.17;;;24.60;99.90;;;;;;4976582;28;20171;-75
2024/01/19 09:33:46;;;;;;;3.43;1.10;;;24.60;99.90;;;;;;4976185;28;20274;-74
2024/01/19 09:36:14;;;;;;;10.53;1.50;;;24.60;99.90;;;;;;4976461;28;20175;-74
2024/01/19 09:38:41;;;;;;;7.20;2.73;;;24.50;99.90;;;;;;4976198;28;20172;-74
2024/01/19 09:41:22;;;;;;;4.40;1.73;;;24.50;99.90;;;;;;4976131;28;20215;-75
2024/01/19 09:43:54;;;;;;;6.50;1.80;;;24.40;99.90;;;;;;4973453;28;20190;-75
2024/01/19 09:46:30;;;;;;;8.07;1.57;;;24.30;99.90;;;;;;4964586;28;20247;-74
2024/01/19 09:49:20;;;;;;;9.93;1.60;;;24.30;99.90;;;;;;4964633;28;20661;-74
2024/01/19 09:52:02;;;;;;;5.47;1.77;;;24.20;99.90;;;;;;4975944;28;20604;-74
2024/01/19 09:54:34;;;;;;;10.27;1.53;;;24.30;99.90;;;;;;4974558;28;20612;-74
2024/01/19 09:57:03;;;;;;;5.70;1.60;;;24.20;99.90;;;;;;4975518;28;20712;-73
2024/01/19 09:59:32;;;;;;;9.17;1.30;;;24.20;99.90;;;;;;4975861;28;20172;-74
2024/01/19 10:02:01;;;;;;;5.03;1.70;;;24.10;99.90;;;;;;4976069;28;20210;-74
2024/01/19 10:04:29;;;;;;;4.47;1.40;;;24.10;99.90;;;;;;4975832;28;20230;-74
2024/01/19 10:06:57;;;;;;;8.40;1.63;;;24.10;99.90;;;;;;4975686;28;20310;-74
2024/01/19 10:09:25;;;;;;;8.27;1.63;;;24.00;99.90;;;;;;4976012;28;20584;-74
2024/01/19 10:11:55;;;;;;;7.73;1.50;;;23.90;99.90;;;;;;4975864;28;20190;-74
2024/01/19 10:14:26;;;;;;;8.60;1.33;;;23.90;99.90;;;;;;4975878;28;20199;-75
2024/01/19 10:16:54;;;;;;;6.43;1.90;;;23.80;99.90;;;;;;4975902;28;20187;-74
2024/01/19 10:19:21;;;;;;;6.47;1.60;;;23.80;99.90;;;;;;4975627;28;20186;-74
2024/01/19 10:21:51;;;;;;;3.63;1.33;;;23.70;99.90;;;;;;4976008;28;20203;-74
2024/01/19 10:24:19;;;;;;;2.43;1.03;;;23.80;99.90;;;;;;4975647;28;20315;-74
2024/01/19 10:26:54;;;;;;;6.23;1.40;;;23.70;99.90;;;;;;4975372;28;20565;-74
2024/01/19 10:29:22;;;;;;;7.90;1.93;;;23.70;99.90;;;;;;4975697;28;20186;-74
2024/01/19 10:31:52;;;;;;;6.50;1.43;;;23.80;99.90;;;;;;4975590;28;20629;-74
2024/01/19 10:34:28;;;;;;;5.20;1.93;;;23.70;99.90;;;;;;4975700;28;20233;-74
2024/01/19 10:36:56;;;;;;;5.70;1.37;;;23.70;99.90;;;;;;4974288;28;20273;-73
2024/01/19 10:39:31;;;;;;;3.47;1.40;;;23.80;99.90;;;;;;4975406;28;20183;-74
2024/01/19 10:42:07;;;;;;;9.87;1.50;;;23.80;99.90;;;;;;4975383;28;20681;-74
2024/01/19 10:44:35;;;;;;;8.37;1.40;;;23.80;99.90;;;;;;4974050;28;20187;-74
2024/01/19 10:47:02;;;;;;;7.07;1.10;;;23.80;99.90;;;;;;4975246;28;20560;-73
2024/01/19 10:49:30;;;;;;;8.07;1.90;;;23.80;99.90;;;;;;4975088;28;20171;-74
2024/01/19 10:51:58;;;;;;;9.07;2.00;;;23.80;99.90;;;;;;4975166;28;20266;-74
2024/01/19 10:54:27;;;;;;;5.37;1.40;;;23.90;99.90;;;;;;4975548;28;20179;-73
2024/01/19 10:57:06;;;;;;;3.40;1.30;;;24.00;99.90;;;;;;4975043;28;20239;-73
2024/01/19 10:59:34;;;;;;;4.90;1.80;;;24.00;99.90;;;;;;4974991;28;20633;-73
2024/01/19 11:02:04;;;;;;;4.10;1.40;;;24.10;99.90;;;;;;4974912;28;20657;-73
2024/01/19 11:04:34;;;;;;;7.27;1.67;;;24.10;99.90;;;;;;4975236;28;20190;-73
2024/01/19 11:07:03;;;;;;;7.40;1.23;;;24.20;99.90;;;;;;4974921;28;20214;-74
2024/01/19 11:09:31;;;;;;;10.47;1.60;;;24.20;99.90;;;;;;4974883;28;20178;-73
2024/01/19 11:12:01;;;;;;;4.97;1.30;;;24.20;99.90;;;;;;4974974;28;20182;-73
2024/01/19 11:14:30;;;;;;;10.93;1.67;;;24.20;99.90;;;;;;4974831;28;20327;-73
2024/01/19 11:16:58;;;;;;;10.67;2.23;;;24.30;99.90;;;;;;4974893;28;20238;-73
2024/01/19 11:19:26;;;;;;;10.37;2.67;;;24.40;99.90;;;;;;4974760;28;20214;-73
2024/01/19 11:21:54;;;;;;;10.20;2.40;;;24.40;99.90;;;;;;4975138;28;20214;-73
2024/01/19 11:24:26;;;;;;;10.33;2.40;;;24.40;99.90;;;;;;4974924;28;20175;-73
2024/01/19 11:27:14;;;;;;;13.23;2.40;;;24.40;99.90;;;;;;4974680;28;20222;-74
2024/01/19 11:29:46;;;;;;;10.37;2.13;;;24.30;99.90;;;;;;4974502;28;20198;-72
2024/01/19 11:32:14;;;;;;;8.70;2.00;;;24.30;99.90;;;;;;4974228;28;20222;-73
2024/01/19 11:34:50;;;;;;;13.40;2.10;;;24.30;99.90;;;;;;4973680;28;20370;-73
2024/01/19 11:37:46;;;;;;;9.47;2.80;;;24.30;99.90;;;;;;4974645;28;20187;-72
2024/01/19 11:40:29;;;;;;;12.83;2.33;;;24.30;99.90;;;;;;4971462;28;20183;-72
2024/01/19 11:42:57;;;;;;;13.93;2.40;;;24.20;99.90;;;;;;4974590;28;20175;-73
2024/01/19 11:45:40;;;;;;;8.10;2.17;;;24.20;99.90;;;;;;4974538;28;20715;-72
2024/01/19 11:48:09;;;;;;;13.80;2.83;;;24.10;99.90;;;;;;4974222;28;20175;-73
2024/01/19 11:50:45;;;;;;;10.07;2.37;;;24.10;99.90;;;;;;4974470;28;20179;-73
2024/01/19 11:53:14;;;;;;;10.17;2.63;;;24.10;99.90;;;;;;4974275;28;20257;-72
2024/01/19 11:55:42;;;;;;;11.30;2.33;;;24.00;99.90;;;;;;4974448;28;20317;-73
2024/01/19 11:58:29;;;;;;;15.13;3.00;;;24.00;99.90;;;;;;4974471;28;20190;-73
2024/01/19 12:01:03;;;;;;;13.60;2.87;;;24.00;99.90;;;;;;4973691;28;20263;-73
2024/01/19 12:03:31;;;;;;;18.67;3.40;;;23.90;99.90;;;;;;4965158;28;20267;-73
2024/01/19 12:06:01;;;;;;;13.73;3.07;;;23.90;99.90;;;;;;4962563;28;20709;-72
2024/01/19 12:08:29;;;;;;;15.37;2.80;;;23.90;99.90;;;;;;4955165;28;20203;-73
2024/01/19 12:11:09;;;;;;;17.93;3.47;;;23.80;99.90;;;;;;4955010;28;20188;-72
2024/01/19 12:13:41;;;;;;;13.87;2.80;;;23.90;99.90;;;;;;4954925;28;20184;-73
2024/01/19 12:16:09;;;;;;;14.93;3.00;;;23.80;99.90;;;;;;4954592;28;20196;-73
2024/01/19 12:18:38;;;;;;;8.87;2.73;;;23.80;99.90;;;;;;4956279;28;20639;-73
2024/01/19 12:21:06;;;;;;;16.03;2.53;;;23.90;99.90;;;;;;4970322;28;20245;-74
2024/01/19 12:23:35;;;;;;;8.50;2.53;;;23.90;99.90;;;;;;4972645;28;20277;-73
2024/01/19 12:26:07;;;;;;;12.50;2.67;;;23.80;99.90;;;;;;4970738;28;20218;-73
2024/01/19 12:28:35;;;;;;;17.43;3.03;;;23.80;99.90;;;;;;4973166;28;20186;-73
2024/01/19 12:31:03;;;;;;;12.40;2.77;;;23.90;99.90;;;;;;4954809;28;20271;-73
2024/01/19 12:33:31;;;;;;;14.27;2.20;;;23.90;99.90;;;;;;4954524;28;20293;-73
2024/01/19 12:36:11;;;;;;;13.17;3.27;;;23.90;99.90;;;;;;4953394;28;20194;-74
2024/01/19 12:38:42;;;;;;;14.83;2.37;;;23.90;99.90;;;;;;4954834;28;20246;-73
2024/01/19 12:41:16;;;;;;;12.00;2.70;;;23.90;99.90;;;;;;4954760;28;20180;-73
2024/01/19 12:43:44;;;;;;;16.47;3.60;;;23.90;99.90;;;;;;4957297;28;20180;-74
2024/01/19 12:46:12;;;;;;;10.17;2.17;;;23.90;99.90;;;;;;4958036;28;20211;-73
2024/01/19 12:48:40;;;;;;;12.47;2.70;;;23.90;99.90;;;;;;4967117;28;20242;-74
2024/01/19 12:51:09;;;;;;;17.00;3.33;;;23.80;99.90;;;;;;4977176;28;20191;-74
2024/01/19 12:53:36;;;;;;;16.63;2.23;;;23.80;99.90;;;;;;4976851;28;20195;-73
2024/01/19 12:56:25;;;;;;;13.10;2.73;;;23.80;99.90;;;;;;4976580;28;20701;-73
2024/01/19 12:59:05;;;;;;;16.97;2.77;;;23.80;99.90;;;;;;4969153;28;20287;-73
2024/01/19 13:01:35;;;;;;;24.40;3.83;;;23.90;99.90;;;;;;4974031;28;20750;-73
2024/01/19 13:04:02;;;;;;;8.77;2.00;;;23.80;99.90;;;;;;4977237;28;20194;-74
2024/01/19 13:06:30;;;;;;;10.33;2.50;;;23.80;99.90;;;;;;4976605;28;20685;-74